Terminal Aerodrome Forecast
Issued by NWS

Home | Current Version | Previous Version | Graphics & Text | Print | Product List | Glossary On
Versions: 1 2 3 4 5 6 7 8 9 10 11 12
000
FTUS43 KUNR 071100
TAFGCC
TAF
KGCC 071120Z 0712/0812 35008KT P6SM BKN250
     FM071800 34018G28KT P6SM BKN250
     FM080200 34005KT P6SM SKC=

USA.gov is the U.S. government's official web portal to all federal, state and local government web resources and services.